Time;durP1;ratioP1;P1;durP2;ratioP2;P2;SDS_P1;SDS_P2;PMS_P1;PMS_P2;Temp;Humidity;BMP_temperature;BMP_pressure;BME280_temperature;BME280_humidity;BME280_pressure;Samples;Min_cycle;Max_cycle;Signal;HPM_P1;HPM_P2
2022/06/09 00:00:29;;;;;;;11.40;3.67;;;;;;;14.37;86.07;100623.84;3561318;40;20049;-63
2022/06/09 00:03:04;;;;;;;14.55;3.92;;;;;;;14.39;86.00;100619.16;3556835;40;20420;-64
2022/06/09 00:05:31;;;;;;;11.25;4.00;;;;;;;14.38;85.83;100620.16;3560203;40;20062;-64
2022/06/09 00:08:04;;;;;;;15.10;4.93;;;;;;;14.35;85.37;100613.13;3559386;40;20079;-65
2022/06/09 00:10:40;;;;;;;15.18;4.30;;;;;;;14.36;85.72;100619.41;3560057;40;20049;-64
2022/06/09 00:13:06;;;;;;;12.20;4.28;;;;;;;14.30;86.56;100619.88;3559974;40;20061;-63
2022/06/09 00:15:32;;;;;;;11.52;4.75;;;;;;;14.21;86.62;100610.69;3559950;40;20045;-64
2022/06/09 00:17:58;;;;;;;14.55;4.95;;;;;;;14.35;86.90;100633.91;3550560;40;20064;-64
2022/06/09 00:20:24;;;;;;;16.67;4.65;;;;;;;14.39;86.78;100632.66;3551379;40;20049;-63
2022/06/09 00:22:49;;;;;;;12.30;4.25;;;;;;;14.41;86.43;100633.41;3558085;40;20400;-63
2022/06/09 00:25:15;;;;;;;16.42;4.57;;;;;;;14.42;86.23;100635.13;3562038;40;20076;-63
2022/06/09 00:27:42;;;;;;;14.90;4.13;;;;;;;14.43;86.62;100630.56;3560694;40;20109;-64
2022/06/09 00:30:12;;;;;;;17.35;4.65;;;;;;;14.39;86.24;100624.56;3560135;40;20045;-63
2022/06/09 00:32:38;;;;;;;16.95;4.75;;;;;;;14.43;86.42;100631.47;3559495;40;20355;-63
2022/06/09 00:35:05;;;;;;;16.63;4.50;;;;;;;14.46;86.06;100630.31;3561519;40;20049;-63
2022/06/09 00:37:30;;;;;;;16.33;4.43;;;;;;;14.38;85.94;100617.44;3561719;40;20382;-63
2022/06/09 00:39:57;;;;;;;17.65;4.78;;;;;;;14.44;85.53;100630.47;3559853;40;20088;-63
2022/06/09 00:42:23;;;;;;;18.13;4.45;;;;;;;14.44;85.91;100637.72;3559230;40;20131;-63
2022/06/09 00:44:49;;;;;;;11.27;4.10;;;;;;;14.44;85.97;100645.84;3561308;40;20105;-62
2022/06/09 00:47:28;;;;;;;16.13;4.63;;;;;;;14.43;85.93;100636.88;3562212;40;20057;-63
2022/06/09 00:50:19;;;;;;;16.00;4.63;;;;;;;14.37;85.98;100643.63;3560320;40;20510;-64
2022/06/09 00:52:58;;;;;;;15.07;4.85;;;;;;;14.31;85.99;100637.84;3561136;40;20127;-63
2022/06/09 00:55:30;;;;;;;12.82;4.68;;;;;;;14.28;86.09;100654.31;3561686;40;20054;-64
2022/06/09 00:58:06;;;;;;;16.88;4.32;;;;;;;14.19;85.92;100634.28;3560312;40;20076;-63
2022/06/09 01:00:44;;;;;;;15.07;4.80;;;;;;;14.21;86.14;100642.25;3561149;40;20092;-65
2022/06/09 01:03:10;;;;;;;19.90;4.97;;;;;;;14.22;85.64;100650.25;3560943;40;20136;-65
2022/06/09 01:05:40;;;;;;;20.50;5.13;;;;;;;14.12;86.11;100644.72;3560898;40;20054;-65
2022/06/09 01:08:11;;;;;;;20.35;5.00;;;;;;;14.14;85.93;100653.59;3560794;40;20061;-67
2022/06/09 01:10:37;;;;;;;15.25;4.63;;;;;;;13.95;86.11;100618.16;3560614;40;20053;-65
2022/06/09 01:13:04;;;;;;;18.13;4.63;;;;;;;13.87;86.39;100602.56;3561401;40;20085;-65
2022/06/09 01:15:51;;;;;;;16.40;4.72;;;;;;;13.94;86.07;100616.44;3562473;40;20046;-65
2022/06/09 01:18:34;;;;;;;16.48;4.88;;;;;;;14.13;86.27;100651.84;3562307;40;20061;-65
2022/06/09 01:21:40;;;;;;;16.88;5.18;;;;;;;14.14;86.74;100647.28;3560098;40;20089;-66
2022/06/09 01:24:26;;;;;;;16.58;5.03;;;;;;;14.17;86.72;100657.88;3561008;40;20065;-65
2022/06/09 01:27:18;;;;;;;15.80;5.40;;;;;;;14.15;86.51;100658.00;3560007;40;20067;-65
2022/06/09 01:29:57;;;;;;;18.55;5.25;;;;;;;14.02;86.19;100622.13;3560982;40;20057;-67
2022/06/09 01:33:13;;;;;;;17.52;5.80;;;;;;;14.21;86.47;100659.38;3561809;40;20053;-64
2022/06/09 01:35:50;;;;;;;17.55;5.43;;;;;;;14.15;86.45;100655.28;3557885;40;20052;-65
2022/06/09 01:38:16;;;;;;;20.15;5.70;;;;;;;14.23;86.43;100661.94;3561871;40;20113;-65
2022/06/09 01:40:42;;;;;;;24.45;6.07;;;;;;;14.24;85.95;100663.63;3560377;40;20053;-64
2022/06/09 01:43:09;;;;;;;19.73;5.80;;;;;;;14.25;85.62;100665.38;3560339;40;20061;-64
2022/06/09 01:45:55;;;;;;;20.00;5.63;;;;;;;14.25;86.02;100665.38;3560906;40;20375;-64
2022/06/09 01:48:25;;;;;;;22.00;6.05;;;;;;;14.25;86.43;100665.38;3560195;40;20072;-65
2022/06/09 01:51:17;;;;;;;22.55;6.10;;;;;;;14.17;86.17;100666.81;3558559;40;20150;-65
2022/06/09 01:53:52;;;;;;;20.67;5.60;;;;;;;14.27;86.31;100680.50;3560750;40;20053;-65
2022/06/09 01:56:32;;;;;;;24.05;6.88;;;;;;;14.26;86.52;100683.31;3559801;40;20064;-64
2022/06/09 01:59:07;;;;;;;21.65;6.45;;;;;;;14.27;85.95;100690.44;3558117;40;20054;-65
2022/06/09 02:01:48;;;;;;;23.33;6.80;;;;;;;14.10;85.98;100660.19;3559723;40;20053;-65
2022/06/09 02:04:24;;;;;;;20.33;6.63;;;;;;;14.20;86.14;100673.84;3561852;40;20061;-66
2022/06/09 02:06:52;;;;;;;21.63;6.32;;;;;;;14.21;86.14;100681.00;3559936;40;20060;-64
2022/06/09 02:09:19;;;;;;;28.17;6.72;;;;;;;14.16;86.11;100678.63;3562140;40;20123;-63
2022/06/09 02:11:51;;;;;;;19.95;6.22;;;;;;;14.18;86.15;100689.34;3559243;40;20286;-64
2022/06/09 02:14:22;;;;;;;21.63;7.32;;;;;;;14.13;86.17;100689.69;3561425;40;20128;-63
2022/06/09 02:16:48;;;;;;;19.10;5.90;;;;;;;14.11;86.27;100691.69;3555324;40;20065;-63
2022/06/09 02:19:14;;;;;;;21.73;6.82;;;;;;;14.13;86.42;100688.84;3560262;40;20467;-63
2022/06/09 02:21:41;;;;;;;22.77;6.50;;;;;;;14.12;86.53;100692.53;3560543;40;20116;-63
2022/06/09 02:24:07;;;;;;;24.67;7.18;;;;;;;14.02;86.23;100689.69;3560769;40;20061;-63
2022/06/09 02:26:33;;;;;;;25.88;7.13;;;;;;;14.03;86.93;100704.91;3560487;40;20049;-64
2022/06/09 02:28:59;;;;;;;28.65;7.57;;;;;;;13.81;86.92;100667.03;3557936;40;20050;-64
2022/06/09 02:31:25;;;;;;;19.52;6.95;;;;;;;13.99;86.95;100703.44;3561049;40;20067;-63
2022/06/09 02:33:54;;;;;;;20.20;7.43;;;;;;;14.00;87.19;100707.00;3557462;40;20058;-63
2022/06/09 02:36:20;;;;;;;22.23;6.90;;;;;;;13.99;87.12;100708.00;3559911;40;20131;-64
2022/06/09 02:38:46;;;;;;;25.05;7.85;;;;;;;13.95;87.02;100710.03;3559038;40;20055;-64
2022/06/09 02:41:12;;;;;;;26.38;7.55;;;;;;;13.78;86.88;100689.75;3558697;40;20068;-63
2022/06/09 02:43:40;;;;;;;30.58;7.90;;;;;;;13.93;86.52;100715.59;3559218;40;20053;-64
2022/06/09 02:46:06;;;;;;;29.25;7.82;;;;;;;13.85;87.14;100712.59;3559150;40;20077;-64
2022/06/09 02:48:32;;;;;;;22.50;6.82;;;;;;;13.88;86.64;100722.31;3559742;40;20308;-64
2022/06/09 02:51:34;;;;;;;22.80;7.35;;;;;;;13.85;86.91;100717.16;3558846;40;20381;-63
2022/06/09 02:54:06;;;;;;;19.20;7.32;;;;;;;13.83;86.87;100719.13;3560624;40;20120;-63
2022/06/09 02:56:33;;;;;;;22.25;8.43;;;;;;;13.79;86.95;100713.06;3558849;40;20060;-63
2022/06/09 02:58:59;;;;;;;24.33;8.10;;;;;;;13.79;86.66;100723.88;3557254;40;20045;-64
2022/06/09 03:01:26;;;;;;;24.30;8.27;;;;;;;13.78;87.01;100729.41;3560153;40;20096;-63
2022/06/09 03:03:53;;;;;;;27.80;7.68;;;;;;;13.76;86.94;100731.38;3558502;40;20073;-63
2022/06/09 03:06:20;;;;;;;20.75;7.53;;;;;;;13.77;87.16;100731.28;3558798;40;20419;-63
2022/06/09 03:08:46;;;;;;;23.42;7.95;;;;;;;13.78;87.07;100745.63;3558579;40;20045;-63
2022/06/09 03:11:12;;;;;;;25.80;8.05;;;;;;;13.68;86.90;100730.13;3560600;40;20407;-63
2022/06/09 03:13:43;;;;;;;23.77;8.15;;;;;;;13.77;87.04;100744.78;3560799;40;20361;-63
2022/06/09 03:16:13;;;;;;;23.80;7.82;;;;;;;13.78;86.94;100748.34;3561345;40;20063;-63
2022/06/09 03:18:39;;;;;;;27.15;7.57;;;;;;;13.78;86.61;100761.84;3559733;40;20057;-64
2022/06/09 03:21:06;;;;;;;26.95;8.52;;;;;;;13.77;86.59;100762.84;3559690;40;20057;-64
2022/06/09 03:23:31;;;;;;;25.63;8.18;;;;;;;13.76;86.33;100767.34;3557868;40;20056;-64
2022/06/09 03:25:59;;;;;;;23.52;8.70;;;;;;;13.76;86.25;100770.03;3558915;40;20073;-63
2022/06/09 03:28:25;;;;;;;19.75;7.57;;;;;;;13.74;86.69;100773.88;3560605;40;20052;-63
2022/06/09 03:30:51;;;;;;;19.25;7.47;;;;;;;13.73;86.55;100777.53;3557416;40;20140;-64
2022/06/09 03:33:17;;;;;;;22.70;8.05;;;;;;;13.49;86.49;100737.91;3559358;40;20080;-63
2022/06/09 03:35:43;;;;;;;24.80;7.90;;;;;;;13.69;86.30;100782.31;3557757;40;20454;-65
2022/06/09 03:38:08;;;;;;;23.80;7.90;;;;;;;13.68;86.77;100792.25;3556351;40;20065;-64
2022/06/09 03:40:34;;;;;;;24.15;8.40;;;;;;;13.67;86.57;100798.66;3557171;40;20129;-65
2022/06/09 03:43:04;;;;;;;26.80;8.35;;;;;;;13.65;86.11;100791.63;3559843;40;20419;-65
2022/06/09 03:45:31;;;;;;;25.52;7.90;;;;;;;13.64;86.45;100801.56;3555892;40;20380;-64
2022/06/09 03:47:57;;;;;;;24.02;7.93;;;;;;;13.67;86.63;100800.50;3556519;40;20054;-64
2022/06/09 03:50:27;;;;;;;23.92;7.53;;;;;;;13.67;86.27;100800.50;3557149;40;20128;-65
2022/06/09 03:52:54;;;;;;;22.25;8.10;;;;;;;13.66;86.50;100798.75;3559866;40;20060;-65
2022/06/09 03:55:21;;;;;;;20.77;7.85;;;;;;;13.69;86.56;100804.78;3556542;40;20059;-65
2022/06/09 03:57:48;;;;;;;24.38;8.00;;;;;;;13.70;86.08;100808.34;3556120;40;20071;-64
2022/06/09 04:00:20;;;;;;;25.25;8.77;;;;;;;13.67;86.17;100812.16;3557378;40;20119;-65
2022/06/09 04:02:46;;;;;;;24.80;8.82;;;;;;;13.65;86.10;100824.91;3558999;40;20053;-65
2022/06/09 04:05:13;;;;;;;23.88;7.90;;;;;;;13.67;86.02;100822.97;3557664;40;20415;-65
2022/06/09 04:07:41;;;;;;;26.02;8.85;;;;;;;13.68;86.83;100831.91;3558200;40;20053;-65
2022/06/09 04:10:13;;;;;;;27.13;8.60;;;;;;;13.60;86.44;100818.09;3559513;40;20167;-65
2022/06/09 04:12:38;;;;;;;27.00;8.43;;;;;;;13.67;86.16;100836.47;3556892;40;20069;-64
2022/06/09 04:15:05;;;;;;;22.60;8.18;;;;;;;13.66;86.52;100832.00;3556356;40;20060;-65
2022/06/09 04:17:31;;;;;;;19.50;8.80;;;;;;;13.67;86.56;100832.91;3554454;40;20069;-64
2022/06/09 04:19:56;;;;;;;26.38;9.13;;;;;;;13.66;86.58;100840.13;3559122;40;20068;-65
2022/06/09 04:22:22;;;;;;;23.17;8.07;;;;;;;13.65;86.20;100835.72;3559108;40;20469;-64
2022/06/09 04:24:47;;;;;;;26.52;8.63;;;;;;;13.65;86.11;100841.09;3560859;40;20053;-64
2022/06/09 04:27:13;;;;;;;32.88;9.35;;;;;;;13.65;86.18;100849.22;3560454;40;20072;-64
2022/06/09 04:29:39;;;;;;;22.42;8.05;;;;;;;13.65;86.59;100846.50;3560244;40;20422;-64
2022/06/09 04:32:05;;;;;;;23.50;8.38;;;;;;;13.61;86.58;100838.75;3558579;40;20045;-63
2022/06/09 04:34:30;;;;;;;26.55;8.75;;;;;;;13.67;86.63;100849.97;3561840;40;20069;-65
2022/06/09 04:36:56;;;;;;;21.55;8.85;;;;;;;13.62;86.58;100845.88;3561357;40;20281;-65
2022/06/09 04:39:21;;;;;;;23.42;9.43;;;;;;;13.67;86.59;100849.97;3562407;40;20076;-63
2022/06/09 04:41:47;;;;;;;25.25;9.48;;;;;;;13.68;86.42;100862.50;3560077;40;20053;-68
2022/06/09 04:44:12;;;;;;;23.40;9.00;;;;;;;13.66;86.40;100864.44;3559379;40;20057;-63
2022/06/09 04:46:38;;;;;;;21.65;8.80;;;;;;;13.54;86.72;100835.66;3561643;40;20151;-63
2022/06/09 04:49:04;;;;;;;23.25;9.30;;;;;;;13.69;86.95;100866.91;3556102;40;20092;-65
2022/06/09 04:51:31;;;;;;;23.90;9.38;;;;;;;13.69;86.54;100872.31;3558773;40;20057;-64
2022/06/09 04:53:57;;;;;;;28.23;9.50;;;;;;;13.72;87.17;100871.22;3552158;40;20060;-61
2022/06/09 04:56:23;;;;;;;24.20;9.82;;;;;;;13.76;87.03;100877.25;3562187;40;20057;-61
2022/06/09 04:58:50;;;;;;;25.27;9.77;;;;;;;13.76;86.80;100871.84;3557508;40;20071;-61
2022/06/09 05:01:21;;;;;;;27.60;9.88;;;;;;;13.61;86.91;100845.03;3557504;40;20105;-61
2022/06/09 05:03:49;;;;;;;28.98;9.32;;;;;;;13.83;86.77;100879.41;3558021;40;20057;-62
2022/06/09 05:06:18;;;;;;;25.40;9.35;;;;;;;13.77;86.86;100874.47;3556062;40;20049;-62
2022/06/09 05:08:44;;;;;;;27.92;9.43;;;;;;;13.86;87.10;100891.81;3552189;40;20431;-62
2022/06/09 05:11:10;;;;;;;23.02;9.00;;;;;;;13.93;87.31;100907.47;3556207;40;20061;-62
2022/06/09 05:13:36;;;;;;;25.83;9.90;;;;;;;14.01;87.44;100908.72;3559011;40;20050;-62
2022/06/09 05:16:03;;;;;;;24.33;9.50;;;;;;;14.10;87.51;100917.00;3551667;40;20061;-62
2022/06/09 05:18:32;;;;;;;21.58;9.10;;;;;;;14.22;87.59;100919.78;3556795;40;20054;-62
2022/06/09 05:20:59;;;;;;;21.60;8.93;;;;;;;14.32;87.36;100923.50;3561332;40;20044;-62
2022/06/09 05:23:27;;;;;;;24.08;8.82;;;;;;;14.44;87.33;100922.56;3560255;40;20056;-62
2022/06/09 05:25:56;;;;;;;22.20;8.85;;;;;;;14.58;87.30;100922.38;3560635;40;20085;-62
2022/06/09 05:28:25;;;;;;;20.70;8.20;;;;;;;14.70;86.75;100925.13;3560462;40;20063;-62
2022/06/09 05:30:52;;;;;;;21.00;8.68;;;;;;;14.74;86.28;100927.47;3561533;40;20934;-61
2022/06/09 05:33:18;;;;;;;21.40;8.00;;;;;;;14.88;85.52;100942.66;3561656;40;20057;-62
2022/06/09 05:35:44;;;;;;;18.85;7.93;;;;;;;14.88;85.21;100930.97;3559323;40;20097;-62
2022/06/09 05:46:30;;;;;;;24.55;7.35;;;;;;;14.94;84.02;100958.41;3557531;40;20415;-62
2022/06/09 05:48:55;;;;;;;26.52;8.23;;;;;;;14.90;83.71;100959.63;3560133;40;20057;-62
2022/06/09 05:51:21;;;;;;;26.75;8.77;;;;;;;14.91;84.34;100965.91;3560389;40;20103;-62
2022/06/09 05:53:47;;;;;;;23.23;8.88;;;;;;;14.96;84.09;100974.53;3559122;40;20065;-61
2022/06/09 05:56:13;;;;;;;22.08;7.85;;;;;;;14.93;84.53;100964.78;3558588;40;20299;-62
2022/06/09 05:58:39;;;;;;;23.08;7.53;;;;;;;15.04;83.69;100977.50;3559460;40;20080;-61
2022/06/09 06:01:09;;;;;;;26.83;8.70;;;;;;;15.12;83.93;100974.19;3558130;40;20065;-62
2022/06/09 06:03:37;;;;;;;20.52;7.38;;;;;;;15.20;83.66;100983.44;3558717;40;20050;-62
2022/06/09 06:09:07;;;;;;;20.20;7.90;;;;;;;15.40;82.64;100989.97;3549423;40;20380;-62
2022/06/09 06:11:37;;;;;;;20.33;7.63;;;;;;;15.51;83.34;100997.28;3559077;40;20053;-62
2022/06/09 06:14:04;;;;;;;18.38;8.32;;;;;;;15.54;82.94;100980.78;3561434;40;20060;-62
2022/06/09 06:16:30;;;;;;;20.65;8.00;;;;;;;15.73;82.68;100996.41;3559589;40;20705;-62
2022/06/09 06:18:56;;;;;;;17.35;7.72;;;;;;;15.77;82.69;101003.31;3559622;40;20055;-62
2022/06/09 06:21:23;;;;;;;21.27;7.63;;;;;;;15.84;82.63;101001.84;3562113;40;20062;-62
2022/06/09 06:23:49;;;;;;;14.63;7.30;;;;;;;15.87;82.82;101004.31;3562049;40;20424;-62
2022/06/09 06:26:16;;;;;;;19.33;7.70;;;;;;;15.95;81.15;101007.25;3557934;40;20067;-63
2022/06/09 06:28:42;;;;;;;20.45;7.18;;;;;;;15.98;81.88;101009.72;3558993;40;20075;-62
2022/06/09 06:31:07;;;;;;;16.98;6.78;;;;;;;16.00;81.80;101015.88;3558508;40;20396;-61
2022/06/09 06:33:33;;;;;;;18.75;6.45;;;;;;;16.08;82.26;101017.06;3558210;40;20061;-62
2022/06/09 06:35:59;;;;;;;18.70;6.30;;;;;;;16.00;80.68;101010.44;3558897;40;20057;-62
2022/06/09 06:38:24;;;;;;;18.05;6.82;;;;;;;16.11;80.06;101023.13;3558224;40;20146;-63
2022/06/09 06:40:50;;;;;;;17.05;6.60;;;;;;;16.06;80.91;101014.50;3559734;40;20057;-62
2022/06/09 06:43:17;;;;;;;21.98;6.70;;;;;;;16.12;80.49;101035.69;3551183;40;20057;-62
2022/06/09 06:45:43;;;;;;;18.02;6.30;;;;;;;16.15;80.76;101040.88;3560111;40;20134;-61
2022/06/09 06:48:09;;;;;;;15.82;6.15;;;;;;;16.19;80.46;101036.91;3560245;40;20069;-62
2022/06/09 06:50:35;;;;;;;13.38;5.70;;;;;;;16.21;80.06;101040.38;3558420;40;20493;-62
2022/06/09 06:53:01;;;;;;;16.08;6.40;;;;;;;16.27;80.66;101055.28;3558164;40;20355;-62
2022/06/09 06:55:29;;;;;;;17.35;6.57;;;;;;;16.11;79.88;101019.53;3557308;40;20073;-62
2022/06/09 06:57:55;;;;;;;11.50;5.50;;;;;;;16.20;79.28;101032.34;3558742;40;20095;-62
2022/06/09 07:00:24;;;;;;;18.77;6.32;;;;;;;16.35;79.96;101060.06;3557858;40;20046;-62
2022/06/09 07:02:51;;;;;;;14.23;6.13;;;;;;;16.39;79.85;101059.69;3557783;40;20053;-61
2022/06/09 07:05:20;;;;;;;14.23;6.28;;;;;;;16.14;79.43;101019.28;3558677;40;20123;-62
2022/06/09 07:07:46;;;;;;;20.27;9.63;;;;;;;16.39;79.09;101064.25;3556039;40;20065;-61
2022/06/09 07:10:13;;;;;;;19.15;6.75;;;;;;;16.41;79.33;101067.72;3558856;40;20057;-62
2022/06/09 07:12:40;;;;;;;16.45;6.07;;;;;;;16.47;80.17;101072.63;3556513;40;20072;-63
2022/06/09 07:15:07;;;;;;;16.42;6.10;;;;;;;16.47;79.51;101073.50;3560363;40;20053;-62
2022/06/09 07:17:33;;;;;;;16.25;6.65;;;;;;;16.52;78.40;101080.38;3557090;40;20097;-62
2022/06/09 07:19:59;;;;;;;14.23;6.50;;;;;;;16.54;79.57;101089.25;3560475;40;20060;-63
2022/06/09 07:22:24;;;;;;;17.52;6.35;;;;;;;16.59;79.27;101097.91;3557875;40;20075;-62
2022/06/09 07:24:50;;;;;;;18.30;6.40;;;;;;;16.68;78.82;101102.53;3560008;40;20049;-63
2022/06/09 07:27:16;;;;;;;12.98;5.15;;;;;;;16.73;78.15;101103.03;3557196;40;20060;-63
2022/06/09 07:29:42;;;;;;;12.82;4.78;;;;;;;16.78;76.99;101106.28;3555765;40;20065;-62
2022/06/09 07:32:09;;;;;;;11.27;4.65;;;;;;;16.84;77.05;101113.91;3556962;40;20127;-63
2022/06/09 07:34:36;;;;;;;7.05;2.60;;;;;;;16.90;71.97;101113.38;3559544;40;20086;-62
2022/06/09 07:37:03;;;;;;;7.70;2.65;;;;;;;17.01;70.95;101106.19;3558619;40;20061;-63
2022/06/09 07:39:29;;;;;;;5.88;2.40;;;;;;;17.09;71.81;101103.66;3557518;40;20116;-63
2022/06/09 07:41:54;;;;;;;5.90;2.33;;;;;;;17.27;71.96;101103.97;3559671;40;20064;-64
2022/06/09 07:44:20;;;;;;;5.70;2.60;;;;;;;17.47;72.63;101107.66;3560032;40;20112;-64
2022/06/09 07:46:46;;;;;;;5.20;2.40;;;;;;;17.59;71.47;101103.91;3559017;40;20064;-65
2022/06/09 07:49:11;;;;;;;6.57;2.53;;;;;;;17.56;70.68;101107.72;3558091;40;20053;-64
2022/06/09 07:51:39;;;;;;;3.92;2.40;;;;;;;17.36;71.32;101070.56;3558238;40;20053;-65
2022/06/09 07:54:05;;;;;;;4.78;2.05;;;;;;;17.60;70.74;101116.47;3558684;40;20646;-65
2022/06/09 07:56:34;;;;;;;4.47;2.40;;;;;;;17.64;69.49;101113.38;3556828;40;20065;-65
2022/06/09 07:59:06;;;;;;;5.18;2.30;;;;;;;17.77;69.79;101113.19;3557950;40;20063;-64
2022/06/09 08:01:33;;;;;;;3.55;1.70;;;;;;;17.96;69.74;101117.03;3555655;40;20088;-65
2022/06/09 08:03:59;;;;;;;3.88;1.90;;;;;;;18.23;70.24;101125.44;3557896;40;20100;-65
2022/06/09 08:06:25;;;;;;;4.35;1.90;;;;;;;18.39;68.99;101129.50;3556722;40;20073;-64
2022/06/09 08:08:55;;;;;;;4.18;2.05;;;;;;;18.64;68.25;101126.28;3557917;40;20075;-65
2022/06/09 08:11:22;;;;;;;3.40;1.70;;;;;;;18.42;67.05;101072.91;3556002;40;20146;-63
2022/06/09 08:13:48;;;;;;;4.82;1.85;;;;;;;18.81;66.23;101129.34;3555892;40;20415;-63
2022/06/09 08:16:15;;;;;;;6.60;2.42;;;;;;;18.84;66.41;101129.97;3556157;40;20053;-62
2022/06/09 08:18:40;;;;;;;5.80;2.20;;;;;;;18.83;67.06;101128.22;3557183;40;20069;-63
2022/06/09 08:21:06;;;;;;;3.40;1.45;;;;;;;18.86;65.37;101146.16;3558320;40;20063;-63
2022/06/09 08:23:31;;;;;;;4.40;1.50;;;;;;;18.84;65.38;101143.56;3556850;40;20136;-63
2022/06/09 08:25:58;;;;;;;4.43;1.75;;;;;;;18.71;65.33;101122.03;3557402;40;20317;-63
2022/06/09 08:28:25;;;;;;;3.72;1.67;;;;;;;18.87;66.18;101156.03;3555687;40;20069;-63
2022/06/09 08:30:55;;;;;;;4.05;1.60;;;;;;;18.82;65.22;101159.19;3558240;40;20061;-63
2022/06/09 08:33:23;;;;;;;4.60;1.85;;;;;;;18.71;65.25;101146.53;3558735;40;20107;-63
2022/06/09 08:35:50;;;;;;;3.70;1.75;;;;;;;18.85;65.39;101161.63;3556207;40;20065;-63
2022/06/09 08:38:16;;;;;;;6.88;2.20;;;;;;;18.86;66.38;101170.66;3560546;40;20061;-62
2022/06/09 08:41:03;;;;;;;3.08;1.80;;;;;;;18.89;66.29;101168.50;3558743;40;20123;-62
2022/06/09 08:44:01;;;;;;;1.90;1.70;;;;;;;18.89;65.56;101173.97;3557704;40;20060;-63
2022/06/09 08:47:13;;;;;;;3.45;1.70;;;;;;;19.02;65.38;101187.31;3557257;40;20050;-63
2022/06/09 08:50:31;;;;;;;4.80;1.85;;;;;;;19.27;64.29;101179.59;3557125;40;20049;-63
2022/06/09 08:53:13;;;;;;;3.17;1.33;;;;;;;19.40;62.55;101191.09;3546661;40;20300;-62
2022/06/09 08:55:52;;;;;;;4.60;1.70;;;;;;;19.46;62.90;101183.19;3558107;40;20093;-62
2022/06/09 08:58:39;;;;;;;4.50;1.50;;;;;;;19.52;62.98;101194.53;3560371;40;20127;-63
2022/06/09 09:01:12;;;;;;;5.32;1.45;;;;;;;19.58;63.10;101188.50;3560719;40;20097;-62
2022/06/09 09:03:51;;;;;;;4.53;1.60;;;;;;;19.64;62.18;101202.47;3560707;40;20061;-63
2022/06/09 09:06:47;;;;;;;3.88;1.95;;;;;;;19.56;61.96;101205.00;3558173;40;20049;-63
2022/06/09 09:09:31;;;;;;;5.25;2.28;;;;;;;19.37;64.06;101191.38;3560406;40;20055;-64
2022/06/09 09:12:35;;;;;;;11.45;6.68;;;;;;;19.41;64.09;101204.59;3559933;40;20092;-63
2022/06/09 09:15:15;;;;;;;3.72;2.60;;;;;;;19.41;63.75;101209.16;3560692;40;20061;-63
2022/06/09 09:18:14;;;;;;;5.72;2.65;;;;;;;19.45;63.58;101203.28;3559634;40;20096;-63
2022/06/09 09:21:10;;;;;;;3.65;2.05;;;;;;;19.35;62.85;101209.75;3560380;40;20052;-63
2022/06/09 09:23:56;;;;;;;6.18;2.00;;;;;;;19.27;62.36;101209.59;3559900;40;20049;-63
2022/06/09 09:26:46;;;;;;;4.88;2.17;;;;;;;19.15;62.98;101215.16;3559890;40;20058;-63
2022/06/09 09:29:29;;;;;;;3.28;1.92;;;;;;;19.09;63.70;101213.00;3558010;40;20067;-63
2022/06/09 09:32:07;;;;;;;5.30;1.95;;;;;;;19.06;63.74;101220.59;3559283;40;20046;-63
2022/06/09 09:34:41;;;;;;;4.95;2.53;;;;;;;19.05;63.28;101227.91;3559512;40;20057;-63
2022/06/09 09:37:33;;;;;;;7.57;2.85;;;;;;;19.06;64.79;101226.03;3559941;40;20057;-63
2022/06/09 09:40:23;;;;;;;4.00;2.72;;;;;;;19.12;65.55;101223.63;3560020;40;20112;-63
2022/06/09 09:42:54;;;;;;;5.15;2.60;;;;;;;19.18;65.19;101235.81;3560158;40;20135;-63
2022/06/09 09:45:36;;;;;;;8.20;2.90;;;;;;;19.21;64.75;101239.13;3560155;40;20045;-64
2022/06/09 09:48:26;;;;;;;4.00;2.50;;;;;;;19.00;63.37;101213.88;3561449;40;20065;-63
2022/06/09 09:50:56;;;;;;;4.68;2.60;;;;;;;19.16;63.04;101238.72;3559265;40;20064;-63
2022/06/09 09:53:55;;;;;;;7.13;3.10;;;;;;;19.32;63.77;101242.75;3560553;40;20045;-63
2022/06/09 09:56:21;;;;;;;6.43;3.20;;;;;;;19.60;64.25;101244.63;3558578;40;20085;-63
2022/06/09 09:58:46;;;;;;;3.17;2.10;;;;;;;20.36;62.76;101252.91;3557236;40;20061;-63
2022/06/09 10:01:21;;;;;;;3.80;2.10;;;;;;;21.10;60.79;101246.56;3558459;40;20053;-63
2022/06/09 10:09:46;;;;;;;2.75;2.40;;;;;;;20.94;60.83;101256.44;3558643;40;20068;-63
2022/06/09 10:12:30;;;;;;;4.70;2.40;;;;;;;20.60;61.37;101268.78;3557364;40;20060;-62
2022/06/09 10:15:11;;;;;;;7.32;3.13;;;;;;;20.31;61.46;101284.38;3560244;40;20090;-63
2022/06/09 10:17:57;;;;;;;5.32;2.78;;;;;;;19.68;62.22;101272.06;3555923;40;20054;-63
2022/06/09 10:20:43;;;;;;;2.95;2.20;;;;;;;19.21;64.69;101277.28;3559674;40;20629;-63
2022/06/09 10:23:16;;;;;;;2.42;1.85;;;;;;;18.86;64.42;101282.34;3560074;40;20062;-63
2022/06/09 10:26:31;;;;;;;4.32;2.20;;;;;;;18.75;68.38;101289.63;3558149;40;20045;-62
2022/06/09 10:29:32;;;;;;;4.97;3.63;;;;;;;18.73;71.73;101286.16;3558102;40;20086;-61
2022/06/09 10:32:15;;;;;;;5.95;4.10;;;;;;;18.77;72.34;101290.34;3558873;40;20060;-61
2022/06/09 10:35:11;;;;;;;6.85;4.75;;;;;;;18.93;76.42;101288.97;3559703;40;20050;-64
2022/06/09 10:38:20;;;;;;;8.20;4.97;;;;;;;19.14;74.17;101288.91;3559931;40;20055;-62
2022/06/09 10:40:59;;;;;;;8.20;6.00;;;;;;;19.06;77.14;101206.97;3560894;40;20124;-62
2022/06/09 10:43:37;;;;;;;9.88;5.72;;;;;;;20.17;75.25;101294.75;3558998;40;20069;-62
2022/06/09 10:46:41;;;;;;;6.38;4.78;;;;;;;20.98;69.30;101294.25;3558141;40;20065;-63
2022/06/09 10:55:31;;;;;;;5.70;3.75;;;;;;;22.69;61.42;101296.91;3556881;40;20319;-62
2022/06/09 10:58:11;;;;;;;5.68;3.60;;;;;;;22.73;58.87;101294.72;3560049;40;20057;-63
2022/06/09 11:00:45;;;;;;;7.43;4.28;;;;;;;22.67;60.00;101304.44;3558117;40;20128;-63
2022/06/09 11:03:44;;;;;;;6.57;3.70;;;;;;;22.59;56.52;101308.00;3558373;40;20340;-63
2022/06/09 11:06:49;;;;;;;5.10;2.33;;;;;;;22.52;53.93;101317.00;3556922;40;20065;-65
2022/06/09 11:09:21;;;;;;;4.57;2.45;;;;;;;22.86;56.22;101315.16;3557316;40;20080;-65
2022/06/09 11:12:05;;;;;;;5.55;2.25;;;;;;;22.79;51.63;101307.78;3557691;40;20094;-65
2022/06/09 11:14:55;;;;;;;3.33;2.10;;;;;;;22.87;51.63;101322.38;3559128;40;20383;-66
2022/06/09 11:18:02;;;;;;;6.65;2.83;;;;;;;23.15;53.01;101330.41;3556466;40;20053;-66
2022/06/09 11:20:58;;;;;;;6.95;2.30;;;;;;;23.19;50.40;101309.88;3557202;40;20054;-65
2022/06/09 11:23:43;;;;;;;3.42;2.10;;;;;;;23.01;51.08;101329.16;3555741;40;20061;-65
2022/06/09 11:26:47;;;;;;;5.88;2.30;;;;;;;22.56;51.99;101334.88;3555568;40;20358;-65
2022/06/09 11:29:48;;;;;;;6.50;2.60;;;;;;;21.99;52.62;101333.34;3558131;40;20045;-64
2022/06/09 11:32:43;;;;;;;7.68;2.70;;;;;;;21.54;53.27;101328.78;3559587;40;20127;-63
2022/06/09 11:35:37;;;;;;;5.32;2.83;;;;;;;21.19;55.08;101334.16;3556974;40;20396;-63
2022/06/09 11:38:40;;;;;;;8.60;2.55;;;;;;;20.92;56.15;101346.78;3558223;40;20055;-62
2022/06/09 11:41:25;;;;;;;5.03;2.45;;;;;;;20.76;56.67;101349.28;3558886;40;20774;-62
2022/06/09 11:44:17;;;;;;;9.13;2.85;;;;;;;20.54;56.20;101350.47;3556984;40;20064;-62
2022/06/09 11:46:44;;;;;;;5.68;2.20;;;;;;;20.38;56.43;101349.16;3558029;40;20068;-63
2022/06/09 11:49:25;;;;;;;8.48;2.63;;;;;;;20.25;56.87;101350.50;3551749;40;20069;-63
2022/06/09 11:51:53;;;;;;;6.97;2.67;;;;;;;20.19;56.91;101354.66;3556867;40;20042;-63
2022/06/09 11:54:49;;;;;;;9.52;2.67;;;;;;;20.15;57.76;101362.28;3558330;40;20312;-61
2022/06/09 11:57:36;;;;;;;7.65;2.80;;;;;;;20.12;55.97;101362.56;3557972;40;20081;-63
2022/06/09 12:00:22;;;;;;;7.50;2.65;;;;;;;20.05;56.58;101371.47;3561287;40;20065;-63
2022/06/09 12:03:13;;;;;;;5.95;2.08;;;;;;;19.98;57.41;101364.84;3551637;40;20548;-61
2022/06/09 12:06:03;;;;;;;6.75;2.25;;;;;;;19.96;56.41;101381.38;3559337;40;20405;-63
2022/06/09 12:09:00;;;;;;;5.00;2.00;;;;;;;19.95;57.28;101374.19;3556347;40;20058;-62
2022/06/09 12:11:51;;;;;;;6.18;2.13;;;;;;;19.94;57.31;101378.78;3556205;40;20103;-63